East Moriches, NY

6:14 PM EST on January 27, 2015 (GMT -0500)
Newport Beach | Change Station
CLOSE
Current Station
Personal Weather Station
Location: East Moriches, NY
Elevation: 39 ft
Nearby Weather Stations

Elev 39 ft 40.82 °N, 72.74 °W | Updated 4 minutes ago

Overcast
Overcast
20.9 °F
Feels Like 21 °F
N
2.0
Wind Variable Wind from NW
Gusts 0.0 mph

Today
High -- | Low -- °F
--% Chance of Precip.
Yesterday
High -- | Low -- °F
Precip. -- in
7:05 AM 5:02 PM
First Quarter, 58% visible
Pressure 29.67 in
Visibility 10.0 miles
Clouds Overcast 11000 ft
Windchill 21 °F
Dew Point 18 °F
Humidity 89%
Rainfall 0.00 in
Snow Depth Not available.
UV 0.0 out of 12
Pollen .10 out of 12
Air Quality Not available.
Flu Activity Not available.
METAR KHWV 272256Z AUTO 33014G22KT 10SM OVC110 M06/M12 A2966 RMK AO2 PK WND 32027/2217 SLP046 T10561117 TSNO $

More Conditions Fewer Conditions

Pressure 29.67 in
Visibility 10.0 miles
Clouds Overcast 11000 ft
Windchill 21 °F
Dew Point 18 °F
Humidity 89%
Rainfall 0.00 in
Snow Depth Not available.
UV 0.0 out of 12
Pollen .10 out of 12
Air Quality Not available.
Flu Activity Not available.
METAR KHWV 272256Z AUTO 33014G22KT 10SM OVC110 M06/M12 A2966 RMK AO2 PK WND 32027/2217 SLP046 T10561117 TSNO $

More Conditions Fewer Conditions

10-Day Weather Forecast

Almanac

Astronomy

Jan. 27, 2015 Rise Set
Actual Time
Civil Twilight
Nautical Twilight
Astronomical Twilight
Moon
Length of Visible Light
Length of Day
Tomorrow will be .
, % of the Moon is Illuminated

Today's Extremes

State Highs State Lows

Community

WunderPhotos

Upload Photos

1,790,973 photos uploaded!

WunderBlogs® & News

Nearby

Air Quality

  Air Quality AQ Index Pollutant
Not available.

Snow Depth

Station Depth Elevation

Earthquake Activity

City Distance Mag. Time & Date
Minimum magnitude displayed is 2.5.

Coastal Water Temperatures

Place Temperature

Nearby Weather Stations